sensor_id;sensor_type;location;lat;lon;timestamp;P1;durP1;ratioP1;P2;durP2;ratioP2
25531;SDS011;13429;48.816;9.118;2023-09-19T00:01:42;1.88;;;0.73;;
25531;SDS011;13429;48.816;9.118;2023-09-19T00:04:11;2.90;;;0.75;;
25531;SDS011;13429;48.816;9.118;2023-09-19T00:06:37;2.10;;;0.55;;
25531;SDS011;13429;48.816;9.118;2023-09-19T00:09:03;2.45;;;0.50;;
25531;SDS011;13429;48.816;9.118;2023-09-19T00:11:30;2.72;;;0.75;;
25531;SDS011;13429;48.816;9.118;2023-09-19T00:13:56;2.42;;;0.80;;
25531;SDS011;13429;48.816;9.118;2023-09-19T00:16:24;1.55;;;0.75;;
25531;SDS011;13429;48.816;9.118;2023-09-19T00:18:51;1.67;;;0.70;;
25531;SDS011;13429;48.816;9.118;2023-09-19T00:21:17;2.83;;;0.70;;
25531;SDS011;13429;48.816;9.118;2023-09-19T00:23:44;2.78;;;0.80;;
25531;SDS011;13429;48.816;9.118;2023-09-19T00:26:10;3.03;;;0.75;;
25531;SDS011;13429;48.816;9.118;2023-09-19T00:28:37;0.77;;;0.50;;
25531;SDS011;13429;48.816;9.118;2023-09-19T00:31:04;2.45;;;0.73;;
25531;SDS011;13429;48.816;9.118;2023-09-19T00:33:30;2.22;;;0.85;;
25531;SDS011;13429;48.816;9.118;2023-09-19T00:35:56;1.95;;;0.82;;
25531;SDS011;13429;48.816;9.118;2023-09-19T00:38:22;1.17;;;0.50;;
25531;SDS011;13429;48.816;9.118;2023-09-19T00:40:52;1.98;;;0.70;;
25531;SDS011;13429;48.816;9.118;2023-09-19T00:43:18;1.48;;;0.40;;
25531;SDS011;13429;48.816;9.118;2023-09-19T00:45:45;2.60;;;0.60;;
25531;SDS011;13429;48.816;9.118;2023-09-19T00:48:13;1.13;;;0.68;;
25531;SDS011;13429;48.816;9.118;2023-09-19T00:50:39;1.73;;;0.60;;
25531;SDS011;13429;48.816;9.118;2023-09-19T00:53:07;2.63;;;0.75;;
25531;SDS011;13429;48.816;9.118;2023-09-19T00:55:38;1.30;;;0.65;;
25531;SDS011;13429;48.816;9.118;2023-09-19T00:58:05;2.63;;;0.75;;
25531;SDS011;13429;48.816;9.118;2023-09-19T01:00:35;1.50;;;0.40;;
25531;SDS011;13429;48.816;9.118;2023-09-19T01:03:01;1.45;;;0.73;;
25531;SDS011;13429;48.816;9.118;2023-09-19T01:05:28;3.50;;;0.90;;
25531;SDS011;13429;48.816;9.118;2023-09-19T01:07:54;3.03;;;0.70;;
25531;SDS011;13429;48.816;9.118;2023-09-19T01:10:20;0.75;;;0.40;;
25531;SDS011;13429;48.816;9.118;2023-09-19T01:15:55;2.75;;;0.73;;
25531;SDS011;13429;48.816;9.118;2023-09-19T01:31:06;3.45;;;0.52;;
25531;SDS011;13429;48.816;9.118;2023-09-19T01:36:24;1.48;;;0.35;;
25531;SDS011;13429;48.816;9.118;2023-09-19T01:38:51;1.35;;;0.70;;
25531;SDS011;13429;48.816;9.118;2023-09-19T01:41:17;1.02;;;0.50;;
25531;SDS011;13429;48.816;9.118;2023-09-19T01:43:47;2.08;;;0.45;;
25531;SDS011;13429;48.816;9.118;2023-09-19T01:46:21;1.55;;;0.65;;
25531;SDS011;13429;48.816;9.118;2023-09-19T01:49:02;3.22;;;0.63;;
25531;SDS011;13429;48.816;9.118;2023-09-19T01:51:37;1.52;;;0.50;;
25531;SDS011;13429;48.816;9.118;2023-09-19T01:54:03;2.60;;;0.90;;
25531;SDS011;13429;48.816;9.118;2023-09-19T01:56:40;1.25;;;0.60;;
25531;SDS011;13429;48.816;9.118;2023-09-19T01:59:10;3.85;;;0.77;;
25531;SDS011;13429;48.816;9.118;2023-09-19T02:01:38;0.70;;;0.47;;
25531;SDS011;13429;48.816;9.118;2023-09-19T02:04:05;1.60;;;0.70;;
25531;SDS011;13429;48.816;9.118;2023-09-19T02:06:31;0.77;;;0.43;;
25531;SDS011;13429;48.816;9.118;2023-09-19T02:08:59;2.05;;;0.82;;
25531;SDS011;13429;48.816;9.118;2023-09-19T02:11:25;1.42;;;0.57;;
25531;SDS011;13429;48.816;9.118;2023-09-19T02:13:51;2.60;;;0.60;;
25531;SDS011;13429;48.816;9.118;2023-09-19T02:16:19;1.02;;;0.77;;
25531;SDS011;13429;48.816;9.118;2023-09-19T02:18:47;2.67;;;0.68;;
25531;SDS011;13429;48.816;9.118;2023-09-19T02:21:14;1.92;;;0.93;;
25531;SDS011;13429;48.816;9.118;2023-09-19T02:23:40;1.65;;;0.65;;
25531;SDS011;13429;48.816;9.118;2023-09-19T02:26:06;1.05;;;0.60;;
25531;SDS011;13429;48.816;9.118;2023-09-19T02:28:33;2.28;;;0.75;;
25531;SDS011;13429;48.816;9.118;2023-09-19T02:30:59;0.82;;;0.50;;
25531;SDS011;13429;48.816;9.118;2023-09-19T02:33:25;1.50;;;0.90;;
25531;SDS011;13429;48.816;9.118;2023-09-19T02:35:55;1.15;;;0.55;;
25531;SDS011;13429;48.816;9.118;2023-09-19T02:38:24;1.90;;;0.73;;
25531;SDS011;13429;48.816;9.118;2023-09-19T02:40:51;1.48;;;0.60;;
25531;SDS011;13429;48.816;9.118;2023-09-19T02:43:17;0.90;;;0.70;;
25531;SDS011;13429;48.816;9.118;2023-09-19T02:45:47;2.40;;;0.70;;
25531;SDS011;13429;48.816;9.118;2023-09-19T02:48:15;1.45;;;0.50;;
25531;SDS011;13429;48.816;9.118;2023-09-19T02:50:41;3.33;;;0.82;;
25531;SDS011;13429;48.816;9.118;2023-09-19T02:53:07;1.70;;;0.40;;
25531;SDS011;13429;48.816;9.118;2023-09-19T02:55:35;3.13;;;0.88;;
25531;SDS011;13429;48.816;9.118;2023-09-19T02:58:03;1.20;;;0.57;;
25531;SDS011;13429;48.816;9.118;2023-09-19T03:00:33;1.08;;;0.45;;
25531;SDS011;13429;48.816;9.118;2023-09-19T03:03:00;0.70;;;0.50;;
25531;SDS011;13429;48.816;9.118;2023-09-19T03:05:27;5.25;;;0.90;;
25531;SDS011;13429;48.816;9.118;2023-09-19T03:07:55;1.90;;;0.68;;
25531;SDS011;13429;48.816;9.118;2023-09-19T03:10:22;3.83;;;0.68;;
25531;SDS011;13429;48.816;9.118;2023-09-19T03:12:50;3.42;;;0.90;;
25531;SDS011;13429;48.816;9.118;2023-09-19T03:15:16;2.65;;;0.88;;
25531;SDS011;13429;48.816;9.118;2023-09-19T03:17:46;1.58;;;0.57;;
25531;SDS011;13429;48.816;9.118;2023-09-19T03:20:12;1.02;;;0.65;;
25531;SDS011;13429;48.816;9.118;2023-09-19T03:22:39;1.75;;;0.65;;
25531;SDS011;13429;48.816;9.118;2023-09-19T03:25:06;1.20;;;0.50;;
25531;SDS011;13429;48.816;9.118;2023-09-19T03:27:37;1.42;;;0.82;;
25531;SDS011;13429;48.816;9.118;2023-09-19T03:30:03;0.90;;;0.50;;
25531;SDS011;13429;48.816;9.118;2023-09-19T03:32:33;1.00;;;0.60;;
25531;SDS011;13429;48.816;9.118;2023-09-19T03:34:59;0.63;;;0.47;;
25531;SDS011;13429;48.816;9.118;2023-09-19T03:37:25;0.80;;;0.50;;
25531;SDS011;13429;48.816;9.118;2023-09-19T03:39:51;0.75;;;0.45;;
25531;SDS011;13429;48.816;9.118;2023-09-19T03:42:18;0.93;;;0.50;;
25531;SDS011;13429;48.816;9.118;2023-09-19T03:44:50;2.35;;;0.47;;
25531;SDS011;13429;48.816;9.118;2023-09-19T03:47:17;3.20;;;0.82;;
25531;SDS011;13429;48.816;9.118;2023-09-19T03:49:44;3.58;;;0.63;;
25531;SDS011;13429;48.816;9.118;2023-09-19T03:52:10;1.02;;;0.55;;
25531;SDS011;13429;48.816;9.118;2023-09-19T03:54:36;1.45;;;0.88;;
25531;SDS011;13429;48.816;9.118;2023-09-19T03:57:03;1.63;;;0.65;;
25531;SDS011;13429;48.816;9.118;2023-09-19T03:59:29;3.72;;;0.70;;
25531;SDS011;13429;48.816;9.118;2023-09-19T04:01:55;1.17;;;0.68;;
25531;SDS011;13429;48.816;9.118;2023-09-19T04:04:23;1.52;;;0.88;;
25531;SDS011;13429;48.816;9.118;2023-09-19T04:06:50;1.73;;;0.70;;
25531;SDS011;13429;48.816;9.118;2023-09-19T04:09:17;3.08;;;1.00;;
25531;SDS011;13429;48.816;9.118;2023-09-19T04:11:43;3.60;;;0.68;;
25531;SDS011;13429;48.816;9.118;2023-09-19T04:14:09;1.45;;;0.68;;
25531;SDS011;13429;48.816;9.118;2023-09-19T04:16:35;1.70;;;0.65;;
25531;SDS011;13429;48.816;9.118;2023-09-19T04:19:01;1.65;;;0.73;;
25531;SDS011;13429;48.816;9.118;2023-09-19T04:21:28;1.75;;;0.90;;
25531;SDS011;13429;48.816;9.118;2023-09-19T04:23:54;2.40;;;0.80;;
25531;SDS011;13429;48.816;9.118;2023-09-19T04:26:20;1.50;;;0.63;;
25531;SDS011;13429;48.816;9.118;2023-09-19T04:28:46;0.85;;;0.40;;
25531;SDS011;13429;48.816;9.118;2023-09-19T04:31:13;1.42;;;0.68;;
25531;SDS011;13429;48.816;9.118;2023-09-19T04:33:39;1.75;;;0.68;;
25531;SDS011;13429;48.816;9.118;2023-09-19T04:36:05;2.85;;;0.60;;
25531;SDS011;13429;48.816;9.118;2023-09-19T04:38:32;0.82;;;0.40;;
25531;SDS011;13429;48.816;9.118;2023-09-19T04:40:59;2.00;;;0.77;;
25531;SDS011;13429;48.816;9.118;2023-09-19T04:43:25;3.08;;;1.00;;
25531;SDS011;13429;48.816;9.118;2023-09-19T04:45:51;3.00;;;0.93;;
25531;SDS011;13429;48.816;9.118;2023-09-19T04:48:21;7.47;;;1.20;;
25531;SDS011;13429;48.816;9.118;2023-09-19T04:50:49;2.13;;;0.90;;
25531;SDS011;13429;48.816;9.118;2023-09-19T04:53:16;3.25;;;1.23;;
25531;SDS011;13429;48.816;9.118;2023-09-19T04:55:42;2.35;;;1.00;;
25531;SDS011;13429;48.816;9.118;2023-09-19T04:58:08;2.75;;;1.13;;
25531;SDS011;13429;48.816;9.118;2023-09-19T05:00:35;2.28;;;1.25;;
25531;SDS011;13429;48.816;9.118;2023-09-19T05:03:01;6.63;;;0.75;;
25531;SDS011;13429;48.816;9.118;2023-09-19T05:05:29;1.00;;;0.57;;
25531;SDS011;13429;48.816;9.118;2023-09-19T05:07:55;3.10;;;1.10;;
25531;SDS011;13429;48.816;9.118;2023-09-19T05:10:21;9.60;;;1.33;;
25531;SDS011;13429;48.816;9.118;2023-09-19T05:12:47;1.27;;;0.80;;
25531;SDS011;13429;48.816;9.118;2023-09-19T05:15:16;3.80;;;0.98;;
25531;SDS011;13429;48.816;9.118;2023-09-19T05:17:47;1.90;;;1.10;;
25531;SDS011;13429;48.816;9.118;2023-09-19T05:20:14;2.40;;;1.27;;
25531;SDS011;13429;48.816;9.118;2023-09-19T05:22:49;2.05;;;0.98;;
25531;SDS011;13429;48.816;9.118;2023-09-19T05:25:16;4.55;;;1.40;;
25531;SDS011;13429;48.816;9.118;2023-09-19T05:27:43;3.33;;;1.48;;
25531;SDS011;13429;48.816;9.118;2023-09-19T05:30:09;6.80;;;1.83;;
25531;SDS011;13429;48.816;9.118;2023-09-19T05:32:35;4.90;;;1.67;;
25531;SDS011;13429;48.816;9.118;2023-09-19T05:35:01;2.78;;;1.40;;
25531;SDS011;13429;48.816;9.118;2023-09-19T05:37:28;5.45;;;1.70;;
25531;SDS011;13429;48.816;9.118;2023-09-19T05:39:54;2.17;;;1.10;;
25531;SDS011;13429;48.816;9.118;2023-09-19T05:42:20;4.03;;;1.23;;
25531;SDS011;13429;48.816;9.118;2023-09-19T05:44:46;5.75;;;1.70;;
25531;SDS011;13429;48.816;9.118;2023-09-19T05:47:12;7.63;;;1.40;;
25531;SDS011;13429;48.816;9.118;2023-09-19T05:49:38;2.70;;;1.23;;
25531;SDS011;13429;48.816;9.118;2023-09-19T05:52:07;1.98;;;1.15;;
25531;SDS011;13429;48.816;9.118;2023-09-19T05:54:34;3.42;;;1.70;;
25531;SDS011;13429;48.816;9.118;2023-09-19T05:57:00;5.28;;;1.50;;
25531;SDS011;13429;48.816;9.118;2023-09-19T05:59:27;2.47;;;1.63;;
25531;SDS011;13429;48.816;9.118;2023-09-19T06:01:53;4.18;;;1.70;;
25531;SDS011;13429;48.816;9.118;2023-09-19T06:04:19;2.97;;;1.90;;
25531;SDS011;13429;48.816;9.118;2023-09-19T06:06:46;4.90;;;1.83;;
25531;SDS011;13429;48.816;9.118;2023-09-19T06:09:13;6.68;;;1.70;;
25531;SDS011;13429;48.816;9.118;2023-09-19T06:11:41;6.30;;;1.88;;
25531;SDS011;13429;48.816;9.118;2023-09-19T06:14:07;3.50;;;1.67;;
25531;SDS011;13429;48.816;9.118;2023-09-19T06:16:35;2.97;;;1.67;;
25531;SDS011;13429;48.816;9.118;2023-09-19T06:19:03;3.53;;;1.80;;
25531;SDS011;13429;48.816;9.118;2023-09-19T06:21:31;6.47;;;2.15;;
25531;SDS011;13429;48.816;9.118;2023-09-19T06:23:57;3.40;;;1.65;;
25531;SDS011;13429;48.816;9.118;2023-09-19T06:26:24;3.65;;;1.88;;
25531;SDS011;13429;48.816;9.118;2023-09-19T06:28:52;3.25;;;1.70;;
25531;SDS011;13429;48.816;9.118;2023-09-19T06:31:18;4.07;;;1.70;;
25531;SDS011;13429;48.816;9.118;2023-09-19T06:33:46;3.85;;;1.92;;
25531;SDS011;13429;48.816;9.118;2023-09-19T06:36:12;4.43;;;1.65;;
25531;SDS011;13429;48.816;9.118;2023-09-19T06:38:38;3.00;;;1.58;;
25531;SDS011;13429;48.816;9.118;2023-09-19T06:41:06;4.80;;;1.50;;
25531;SDS011;13429;48.816;9.118;2023-09-19T06:43:33;2.70;;;1.98;;
25531;SDS011;13429;48.816;9.118;2023-09-19T06:45:59;6.13;;;1.80;;
25531;SDS011;13429;48.816;9.118;2023-09-19T06:48:26;7.05;;;2.13;;
25531;SDS011;13429;48.816;9.118;2023-09-19T06:50:55;4.68;;;2.53;;
25531;SDS011;13429;48.816;9.118;2023-09-19T06:53:23;3.63;;;1.85;;
25531;SDS011;13429;48.816;9.118;2023-09-19T06:55:50;3.90;;;1.98;;
25531;SDS011;13429;48.816;9.118;2023-09-19T06:58:16;4.75;;;1.80;;
25531;SDS011;13429;48.816;9.118;2023-09-19T07:00:42;6.45;;;1.58;;
25531;SDS011;13429;48.816;9.118;2023-09-19T07:03:09;6.00;;;1.50;;
25531;SDS011;13429;48.816;9.118;2023-09-19T07:05:37;3.38;;;1.50;;
25531;SDS011;13429;48.816;9.118;2023-09-19T07:08:04;2.33;;;1.40;;
25531;SDS011;13429;48.816;9.118;2023-09-19T07:10:31;4.18;;;1.52;;
25531;SDS011;13429;48.816;9.118;2023-09-19T07:13:02;3.53;;;1.33;;
25531;SDS011;13429;48.816;9.118;2023-09-19T07:15:29;5.57;;;1.50;;
25531;SDS011;13429;48.816;9.118;2023-09-19T07:17:55;4.47;;;2.05;;
25531;SDS011;13429;48.816;9.118;2023-09-19T07:20:23;5.60;;;2.13;;
25531;SDS011;13429;48.816;9.118;2023-09-19T07:22:54;5.20;;;1.75;;
25531;SDS011;13429;48.816;9.118;2023-09-19T07:25:21;7.35;;;1.48;;
25531;SDS011;13429;48.816;9.118;2023-09-19T07:27:47;6.97;;;2.28;;
25531;SDS011;13429;48.816;9.118;2023-09-19T07:30:13;6.13;;;1.83;;
25531;SDS011;13429;48.816;9.118;2023-09-19T07:32:41;3.55;;;1.70;;
25531;SDS011;13429;48.816;9.118;2023-09-19T07:35:08;3.38;;;1.30;;
25531;SDS011;13429;48.816;9.118;2023-09-19T07:37:34;3.17;;;1.88;;
25531;SDS011;13429;48.816;9.118;2023-09-19T07:40:01;3.33;;;1.23;;
25531;SDS011;13429;48.816;9.118;2023-09-19T07:42:32;2.85;;;1.40;;
25531;SDS011;13429;48.816;9.118;2023-09-19T07:44:58;3.63;;;1.45;;
25531;SDS011;13429;48.816;9.118;2023-09-19T07:47:25;6.07;;;1.50;;
25531;SDS011;13429;48.816;9.118;2023-09-19T07:49:52;2.75;;;1.98;;
25531;SDS011;13429;48.816;9.118;2023-09-19T07:52:19;4.53;;;1.58;;
25531;SDS011;13429;48.816;9.118;2023-09-19T07:54:47;2.92;;;1.58;;
25531;SDS011;13429;48.816;9.118;2023-09-19T07:57:14;4.70;;;1.75;;
25531;SDS011;13429;48.816;9.118;2023-09-19T07:59:41;2.90;;;1.50;;
25531;SDS011;13429;48.816;9.118;2023-09-19T08:02:08;2.13;;;1.05;;
25531;SDS011;13429;48.816;9.118;2023-09-19T08:04:41;6.88;;;1.60;;
25531;SDS011;13429;48.816;9.118;2023-09-19T08:07:07;3.50;;;1.27;;
25531;SDS011;13429;48.816;9.118;2023-09-19T08:09:34;3.50;;;1.30;;
25531;SDS011;13429;48.816;9.118;2023-09-19T08:12:00;2.67;;;1.10;;
25531;SDS011;13429;48.816;9.118;2023-09-19T08:14:29;2.38;;;1.10;;
25531;SDS011;13429;48.816;9.118;2023-09-19T08:16:58;5.22;;;1.90;;
25531;SDS011;13429;48.816;9.118;2023-09-19T08:19:24;2.25;;;1.15;;
25531;SDS011;13429;48.816;9.118;2023-09-19T08:21:56;2.10;;;1.38;;
25531;SDS011;13429;48.816;9.118;2023-09-19T08:24:24;5.43;;;1.30;;
25531;SDS011;13429;48.816;9.118;2023-09-19T08:26:52;2.25;;;1.10;;
25531;SDS011;13429;48.816;9.118;2023-09-19T08:29:19;4.10;;;1.30;;
25531;SDS011;13429;48.816;9.118;2023-09-19T08:31:45;2.05;;;1.23;;
25531;SDS011;13429;48.816;9.118;2023-09-19T08:34:14;2.72;;;1.33;;
25531;SDS011;13429;48.816;9.118;2023-09-19T08:36:40;3.08;;;1.30;;
25531;SDS011;13429;48.816;9.118;2023-09-19T08:39:09;6.55;;;1.63;;
25531;SDS011;13429;48.816;9.118;2023-09-19T08:41:36;2.30;;;1.20;;
25531;SDS011;13429;48.816;9.118;2023-09-19T08:44:02;0.98;;;0.73;;
25531;SDS011;13429;48.816;9.118;2023-09-19T08:46:29;3.13;;;1.10;;
25531;SDS011;13429;48.816;9.118;2023-09-19T08:49:03;2.13;;;0.98;;
25531;SDS011;13429;48.816;9.118;2023-09-19T08:51:42;1.90;;;0.80;;
25531;SDS011;13429;48.816;9.118;2023-09-19T08:54:10;3.30;;;1.10;;
25531;SDS011;13429;48.816;9.118;2023-09-19T08:56:38;3.38;;;1.35;;
25531;SDS011;13429;48.816;9.118;2023-09-19T08:59:06;3.60;;;0.77;;
25531;SDS011;13429;48.816;9.118;2023-09-19T09:04:02;1.42;;;0.98;;
25531;SDS011;13429;48.816;9.118;2023-09-19T09:06:29;2.03;;;1.15;;
25531;SDS011;13429;48.816;9.118;2023-09-19T09:08:57;3.08;;;0.98;;
25531;SDS011;13429;48.816;9.118;2023-09-19T09:11:23;2.40;;;1.02;;
25531;SDS011;13429;48.816;9.118;2023-09-19T09:13:49;4.55;;;0.85;;
25531;SDS011;13429;48.816;9.118;2023-09-19T09:16:15;4.85;;;0.75;;
25531;SDS011;13429;48.816;9.118;2023-09-19T09:18:45;2.92;;;1.10;;
25531;SDS011;13429;48.816;9.118;2023-09-19T09:21:12;2.38;;;0.80;;
25531;SDS011;13429;48.816;9.118;2023-09-19T09:23:40;3.85;;;1.10;;
25531;SDS011;13429;48.816;9.118;2023-09-19T09:26:06;4.40;;;1.08;;
25531;SDS011;13429;48.816;9.118;2023-09-19T09:28:34;4.60;;;1.10;;
25531;SDS011;13429;48.816;9.118;2023-09-19T09:31:02;2.60;;;1.02;;
25531;SDS011;13429;48.816;9.118;2023-09-19T09:33:33;2.80;;;1.15;;
25531;SDS011;13429;48.816;9.118;2023-09-19T09:36:00;1.63;;;0.93;;
25531;SDS011;13429;48.816;9.118;2023-09-19T09:38:28;4.43;;;1.52;;
25531;SDS011;13429;48.816;9.118;2023-09-19T09:40:57;3.10;;;1.23;;
25531;SDS011;13429;48.816;9.118;2023-09-19T09:43:35;4.18;;;1.08;;
25531;SDS011;13429;48.816;9.118;2023-09-19T09:46:12;4.70;;;1.40;;
25531;SDS011;13429;48.816;9.118;2023-09-19T09:48:48;2.00;;;1.08;;
25531;SDS011;13429;48.816;9.118;2023-09-19T09:51:31;1.42;;;0.65;;
25531;SDS011;13429;48.816;9.118;2023-09-19T09:54:16;2.80;;;1.30;;
25531;SDS011;13429;48.816;9.118;2023-09-19T09:59:32;3.85;;;1.10;;
25531;SDS011;13429;48.816;9.118;2023-09-19T10:02:11;3.22;;;1.10;;
25531;SDS011;13429;48.816;9.118;2023-09-19T10:04:39;1.02;;;0.73;;
25531;SDS011;13429;48.816;9.118;2023-09-19T10:07:26;4.22;;;1.02;;
25531;SDS011;13429;48.816;9.118;2023-09-19T10:09:55;4.10;;;1.25;;
25531;SDS011;13429;48.816;9.118;2023-09-19T10:12:29;3.50;;;1.13;;
25531;SDS011;13429;48.816;9.118;2023-09-19T10:14:56;2.33;;;1.10;;
25531;SDS011;13429;48.816;9.118;2023-09-19T10:17:24;3.20;;;0.77;;
25531;SDS011;13429;48.816;9.118;2023-09-19T10:19:55;5.15;;;0.95;;
25531;SDS011;13429;48.816;9.118;2023-09-19T10:22:27;1.55;;;0.88;;
25531;SDS011;13429;48.816;9.118;2023-09-19T10:24:56;3.70;;;1.08;;
25531;SDS011;13429;48.816;9.118;2023-09-19T10:27:25;2.05;;;0.98;;
25531;SDS011;13429;48.816;9.118;2023-09-19T10:29:54;1.75;;;0.82;;
25531;SDS011;13429;48.816;9.118;2023-09-19T10:32:22;2.95;;;0.90;;
25531;SDS011;13429;48.816;9.118;2023-09-19T10:34:49;1.63;;;0.70;;
25531;SDS011;13429;48.816;9.118;2023-09-19T10:37:18;2.60;;;0.77;;
25531;SDS011;13429;48.816;9.118;2023-09-19T10:39:47;1.77;;;0.90;;
25531;SDS011;13429;48.816;9.118;2023-09-19T10:42:15;2.17;;;0.90;;
25531;SDS011;13429;48.816;9.118;2023-09-19T10:44:42;4.35;;;1.00;;
25531;SDS011;13429;48.816;9.118;2023-09-19T10:47:09;2.45;;;0.93;;
25531;SDS011;13429;48.816;9.118;2023-09-19T10:49:42;3.65;;;0.70;;
25531;SDS011;13429;48.816;9.118;2023-09-19T10:52:10;3.38;;;1.08;;
25531;SDS011;13429;48.816;9.118;2023-09-19T10:54:41;2.28;;;1.17;;
25531;SDS011;13429;48.816;9.118;2023-09-19T10:57:18;2.00;;;1.05;;
25531;SDS011;13429;48.816;9.118;2023-09-19T11:06:09;1.95;;;0.70;;
25531;SDS011;13429;48.816;9.118;2023-09-19T11:14:13;1.55;;;0.70;;
25531;SDS011;13429;48.816;9.118;2023-09-19T11:16:40;1.48;;;0.80;;
25531;SDS011;13429;48.816;9.118;2023-09-19T11:19:06;3.47;;;1.13;;
25531;SDS011;13429;48.816;9.118;2023-09-19T11:26:50;2.25;;;0.80;;
25531;SDS011;13429;48.816;9.118;2023-09-19T11:29:28;2.25;;;0.90;;
25531;SDS011;13429;48.816;9.118;2023-09-19T11:31:56;0.80;;;0.57;;
25531;SDS011;13429;48.816;9.118;2023-09-19T11:39:37;1.60;;;0.70;;
25531;SDS011;13429;48.816;9.118;2023-09-19T11:44:52;1.10;;;0.40;;
25531;SDS011;13429;48.816;9.118;2023-09-19T11:47:21;2.13;;;0.45;;
25531;SDS011;13429;48.816;9.118;2023-09-19T11:49:49;2.58;;;0.80;;
25531;SDS011;13429;48.816;9.118;2023-09-19T11:52:21;2.25;;;0.70;;
25531;SDS011;13429;48.816;9.118;2023-09-19T11:54:57;1.80;;;0.68;;
25531;SDS011;13429;48.816;9.118;2023-09-19T11:57:25;2.95;;;0.80;;
25531;SDS011;13429;48.816;9.118;2023-09-19T11:59:51;1.48;;;0.55;;
25531;SDS011;13429;48.816;9.118;2023-09-19T12:02:27;2.75;;;0.95;;
25531;SDS011;13429;48.816;9.118;2023-09-19T12:04:59;3.83;;;1.15;;
25531;SDS011;13429;48.816;9.118;2023-09-19T12:07:25;1.15;;;0.68;;
25531;SDS011;13429;48.816;9.118;2023-09-19T12:10:03;1.60;;;0.82;;
25531;SDS011;13429;48.816;9.118;2023-09-19T12:12:29;2.88;;;0.95;;
25531;SDS011;13429;48.816;9.118;2023-09-19T12:14:57;1.27;;;0.73;;
25531;SDS011;13429;48.816;9.118;2023-09-19T12:17:34;2.15;;;0.73;;
25531;SDS011;13429;48.816;9.118;2023-09-19T12:20:01;2.60;;;0.75;;
25531;SDS011;13429;48.816;9.118;2023-09-19T12:22:44;2.67;;;0.80;;
25531;SDS011;13429;48.816;9.118;2023-09-19T12:25:11;5.95;;;1.30;;
25531;SDS011;13429;48.816;9.118;2023-09-19T12:27:44;2.05;;;0.60;;
25531;SDS011;13429;48.816;9.118;2023-09-19T12:30:17;2.60;;;0.85;;
25531;SDS011;13429;48.816;9.118;2023-09-19T12:32:45;2.35;;;0.73;;
25531;SDS011;13429;48.816;9.118;2023-09-19T12:35:26;1.45;;;0.70;;
25531;SDS011;13429;48.816;9.118;2023-09-19T12:37:54;3.03;;;0.85;;
25531;SDS011;13429;48.816;9.118;2023-09-19T12:40:21;2.85;;;0.75;;
25531;SDS011;13429;48.816;9.118;2023-09-19T12:42:48;4.22;;;1.40;;
25531;SDS011;13429;48.816;9.118;2023-09-19T12:45:17;4.32;;;0.65;;
25531;SDS011;13429;48.816;9.118;2023-09-19T12:50:31;1.30;;;0.80;;
25531;SDS011;13429;48.816;9.118;2023-09-19T12:52:58;2.97;;;0.98;;
25531;SDS011;13429;48.816;9.118;2023-09-19T12:55:29;2.42;;;0.80;;
25531;SDS011;13429;48.816;9.118;2023-09-19T13:00:35;1.52;;;0.80;;
25531;SDS011;13429;48.816;9.118;2023-09-19T13:05:54;1.83;;;0.98;;
25531;SDS011;13429;48.816;9.118;2023-09-19T13:08:25;1.55;;;0.70;;
25531;SDS011;13429;48.816;9.118;2023-09-19T13:13:41;1.92;;;1.02;;
25531;SDS011;13429;48.816;9.118;2023-09-19T13:16:09;1.13;;;0.70;;
25531;SDS011;13429;48.816;9.118;2023-09-19T13:18:42;2.27;;;0.93;;
25531;SDS011;13429;48.816;9.118;2023-09-19T13:21:10;2.92;;;1.05;;
25531;SDS011;13429;48.816;9.118;2023-09-19T13:23:53;2.60;;;0.95;;
25531;SDS011;13429;48.816;9.118;2023-09-19T13:26:24;2.92;;;1.00;;
25531;SDS011;13429;48.816;9.118;2023-09-19T13:28:50;1.73;;;0.85;;
25531;SDS011;13429;48.816;9.118;2023-09-19T13:31:16;1.65;;;0.47;;
25531;SDS011;13429;48.816;9.118;2023-09-19T13:33:47;3.33;;;0.90;;
25531;SDS011;13429;48.816;9.118;2023-09-19T13:36:14;3.33;;;0.95;;
25531;SDS011;13429;48.816;9.118;2023-09-19T13:38:40;3.40;;;1.08;;
25531;SDS011;13429;48.816;9.118;2023-09-19T13:41:10;4.50;;;0.60;;
25531;SDS011;13429;48.816;9.118;2023-09-19T13:43:36;2.78;;;0.95;;
25531;SDS011;13429;48.816;9.118;2023-09-19T13:46:04;2.50;;;1.20;;
25531;SDS011;13429;48.816;9.118;2023-09-19T13:48:30;3.97;;;1.17;;
25531;SDS011;13429;48.816;9.118;2023-09-19T13:50:56;1.52;;;0.95;;
25531;SDS011;13429;48.816;9.118;2023-09-19T13:53:22;2.42;;;1.00;;
25531;SDS011;13429;48.816;9.118;2023-09-19T13:55:50;3.47;;;1.10;;
25531;SDS011;13429;48.816;9.118;2023-09-19T13:58:16;1.95;;;0.85;;
25531;SDS011;13429;48.816;9.118;2023-09-19T14:00:42;3.05;;;0.85;;
25531;SDS011;13429;48.816;9.118;2023-09-19T14:03:08;1.52;;;0.57;;
25531;SDS011;13429;48.816;9.118;2023-09-19T14:05:36;1.67;;;0.70;;
25531;SDS011;13429;48.816;9.118;2023-09-19T14:08:02;1.88;;;0.90;;
25531;SDS011;13429;48.816;9.118;2023-09-19T14:10:29;2.97;;;0.93;;
25531;SDS011;13429;48.816;9.118;2023-09-19T14:12:57;4.60;;;1.00;;
25531;SDS011;13429;48.816;9.118;2023-09-19T14:15:24;1.88;;;0.75;;
25531;SDS011;13429;48.816;9.118;2023-09-19T14:17:55;1.83;;;0.80;;
25531;SDS011;13429;48.816;9.118;2023-09-19T14:20:21;4.13;;;1.15;;
25531;SDS011;13429;48.816;9.118;2023-09-19T14:22:48;3.80;;;1.10;;
25531;SDS011;13429;48.816;9.118;2023-09-19T14:25:14;3.22;;;1.10;;
25531;SDS011;13429;48.816;9.118;2023-09-19T14:27:40;2.53;;;1.08;;
25531;SDS011;13429;48.816;9.118;2023-09-19T14:30:07;1.48;;;1.00;;
25531;SDS011;13429;48.816;9.118;2023-09-19T14:32:34;5.45;;;1.33;;
25531;SDS011;13429;48.816;9.118;2023-09-19T14:35:01;2.22;;;1.02;;
25531;SDS011;13429;48.816;9.118;2023-09-19T14:37:27;2.03;;;0.95;;
25531;SDS011;13429;48.816;9.118;2023-09-19T14:39:53;4.20;;;0.90;;
25531;SDS011;13429;48.816;9.118;2023-09-19T14:42:19;3.97;;;1.17;;
25531;SDS011;13429;48.816;9.118;2023-09-19T14:44:46;1.55;;;0.60;;
25531;SDS011;13429;48.816;9.118;2023-09-19T14:47:13;2.03;;;0.93;;
25531;SDS011;13429;48.816;9.118;2023-09-19T14:49:40;2.72;;;0.80;;
25531;SDS011;13429;48.816;9.118;2023-09-19T14:52:07;1.55;;;0.95;;
25531;SDS011;13429;48.816;9.118;2023-09-19T14:54:33;4.55;;;1.92;;
25531;SDS011;13429;48.816;9.118;2023-09-19T14:57:00;3.85;;;0.80;;
25531;SDS011;13429;48.816;9.118;2023-09-19T14:59:32;2.00;;;0.75;;
25531;SDS011;13429;48.816;9.118;2023-09-19T15:02:04;2.17;;;0.90;;
25531;SDS011;13429;48.816;9.118;2023-09-19T15:04:30;1.27;;;0.63;;
25531;SDS011;13429;48.816;9.118;2023-09-19T15:06:56;1.90;;;0.85;;
25531;SDS011;13429;48.816;9.118;2023-09-19T15:09:23;1.80;;;0.80;;
25531;SDS011;13429;48.816;9.118;2023-09-19T15:11:51;1.13;;;0.57;;
25531;SDS011;13429;48.816;9.118;2023-09-19T15:14:17;1.75;;;0.70;;
25531;SDS011;13429;48.816;9.118;2023-09-19T15:16:43;2.03;;;0.80;;
25531;SDS011;13429;48.816;9.118;2023-09-19T15:19:10;2.10;;;0.77;;
25531;SDS011;13429;48.816;9.118;2023-09-19T15:21:36;4.60;;;1.10;;
25531;SDS011;13429;48.816;9.118;2023-09-19T15:24:02;1.35;;;0.70;;
25531;SDS011;13429;48.816;9.118;2023-09-19T15:26:30;9.80;;;5.00;;
25531;SDS011;13429;48.816;9.118;2023-09-19T15:28:56;7.53;;;3.58;;
25531;SDS011;13429;48.816;9.118;2023-09-19T15:31:22;2.08;;;1.05;;
25531;SDS011;13429;48.816;9.118;2023-09-19T15:33:48;2.50;;;1.20;;
25531;SDS011;13429;48.816;9.118;2023-09-19T15:36:15;2.17;;;0.75;;
25531;SDS011;13429;48.816;9.118;2023-09-19T15:41:29;4.00;;;1.17;;
25531;SDS011;13429;48.816;9.118;2023-09-19T15:46:21;1.40;;;0.60;;
25531;SDS011;13429;48.816;9.118;2023-09-19T15:48:47;2.25;;;0.90;;
25531;SDS011;13429;48.816;9.118;2023-09-19T15:51:14;2.85;;;0.73;;
25531;SDS011;13429;48.816;9.118;2023-09-19T15:53:44;3.25;;;0.77;;
25531;SDS011;13429;48.816;9.118;2023-09-19T15:56:11;2.60;;;0.70;;
25531;SDS011;13429;48.816;9.118;2023-09-19T15:58:38;2.85;;;1.27;;